createdAt,value
2023-01-11T00:02:06.599Z,3.10
2023-01-11T00:04:33.579Z,3.10
2023-01-11T00:07:00.525Z,3.10
2023-01-11T00:09:27.458Z,3.10
2023-01-11T00:11:55.195Z,3.10
2023-01-11T00:14:22.145Z,3.10
2023-01-11T00:16:49.037Z,3.10
2023-01-11T00:19:17.194Z,3.10
2023-01-11T00:21:44.046Z,3.10
2023-01-11T00:24:10.779Z,3.00
2023-01-11T00:26:37.606Z,3.10
2023-01-11T00:29:04.391Z,3.20
2023-01-11T00:31:31.187Z,3.20
2023-01-11T00:33:58.114Z,3.20
2023-01-11T00:36:24.948Z,3.20
2023-01-11T00:38:53.728Z,3.20
2023-01-11T00:41:45.042Z,3.20
2023-01-11T00:44:30.772Z,3.20
2023-01-11T00:47:16.680Z,3.30
2023-01-11T00:49:44.248Z,3.30
2023-01-11T00:52:11.902Z,3.30
2023-01-11T00:54:40.144Z,3.30
2023-01-11T00:57:07.826Z,3.40
2023-01-11T00:59:35.805Z,3.30
2023-01-11T01:02:03.415Z,3.40
2023-01-11T01:04:30.232Z,3.40
2023-01-11T01:06:57.128Z,3.50
2023-01-11T01:09:23.926Z,3.40
2023-01-11T01:11:50.787Z,3.40
2023-01-11T01:14:26.598Z,3.40
2023-01-11T01:16:55.245Z,3.40
2023-01-11T01:19:23.202Z,3.40
2023-01-11T01:21:50.973Z,3.40
2023-01-11T01:24:17.797Z,3.40
2023-01-11T01:26:44.653Z,3.30
2023-01-11T01:29:11.960Z,3.40
2023-01-11T01:31:38.936Z,3.40
2023-01-11T01:34:06.529Z,3.30
2023-01-11T01:36:33.725Z,3.40
2023-01-11T01:39:01.413Z,3.40
2023-01-11T01:41:28.633Z,3.40
2023-01-11T01:43:56.426Z,3.40
2023-01-11T01:46:28.278Z,3.40
2023-01-11T01:49:06.834Z,3.50
2023-01-11T01:51:45.806Z,3.40
2023-01-11T01:54:18.596Z,3.40
2023-01-11T01:56:51.413Z,3.50
2023-01-11T01:59:20.351Z,3.50
2023-01-11T02:01:49.287Z,3.50
2023-01-11T02:04:30.175Z,3.60
2023-01-11T02:07:03.591Z,3.50
2023-01-11T02:09:58.590Z,3.50
2023-01-11T02:12:30.972Z,3.50
2023-01-11T02:15:00.327Z,3.50
2023-01-11T02:17:27.263Z,3.50
2023-01-11T02:20:06.161Z,3.50
2023-01-11T02:22:56.940Z,3.50
2023-01-11T02:25:32.292Z,3.50
2023-01-11T02:28:07.676Z,3.50
2023-01-11T02:30:53.796Z,3.50
2023-01-11T02:33:42.923Z,3.50
2023-01-11T02:36:44.545Z,3.50
2023-01-11T02:39:43.557Z,3.50
2023-01-11T02:42:52.663Z,3.50
2023-01-11T02:45:52.408Z,3.50
2023-01-11T02:48:39.395Z,3.50
2023-01-11T02:51:35.620Z,3.50
2023-01-11T02:54:07.098Z,3.40
2023-01-11T02:56:38.918Z,3.40
2023-01-11T02:59:09.525Z,3.50
2023-01-11T03:01:47.017Z,3.50
2023-01-11T03:04:43.164Z,3.50
2023-01-11T03:07:47.497Z,3.40
2023-01-11T03:10:43.355Z,3.50
2023-01-11T03:13:17.402Z,3.60
2023-01-11T03:16:08.773Z,3.60
2023-01-11T03:19:00.810Z,3.60
2023-01-11T03:21:47.314Z,3.60
2023-01-11T03:24:38.139Z,3.70
2023-01-11T03:27:16.766Z,3.60
2023-01-11T03:30:03.883Z,3.70
2023-01-11T03:33:14.447Z,3.60
2023-01-11T03:35:48.766Z,3.60
2023-01-11T03:38:25.281Z,3.80
2023-01-11T03:40:57.771Z,3.70
2023-01-11T03:43:26.299Z,3.80
2023-01-11T03:46:04.980Z,3.80
2023-01-11T03:48:55.562Z,3.80
2023-01-11T03:51:27.912Z,3.70
2023-01-11T03:53:59.189Z,3.70
2023-01-11T03:56:34.117Z,3.80
2023-01-11T03:59:01.616Z,3.80
2023-01-11T04:01:29.304Z,3.90
2023-01-11T04:03:56.220Z,3.90
2023-01-11T04:06:25.407Z,3.90
2023-01-11T04:08:52.276Z,4.10
2023-01-11T04:11:19.170Z,3.90
2023-01-11T04:13:45.990Z,3.90
2023-01-11T04:16:12.840Z,3.90
2023-01-11T04:18:39.665Z,3.90
2023-01-11T04:21:06.468Z,3.90
2023-01-11T04:23:33.367Z,4.00
2023-01-11T04:26:00.141Z,3.90
2023-01-11T04:28:27.086Z,4.00
2023-01-11T04:30:54.217Z,4.00
2023-01-11T04:33:21.003Z,4.00
2023-01-11T04:35:49.847Z,3.90
2023-01-11T04:38:16.984Z,3.90
2023-01-11T04:40:43.812Z,4.00
2023-01-11T04:43:10.630Z,4.00
2023-01-11T04:45:37.456Z,4.00
2023-01-11T04:48:04.532Z,4.00
2023-01-11T04:50:31.397Z,4.00
2023-01-11T04:52:59.450Z,4.00
2023-01-11T04:55:26.298Z,4.00
2023-01-11T04:57:53.146Z,4.00
2023-01-11T05:00:20.325Z,4.00
2023-01-11T05:02:47.127Z,4.00
2023-01-11T05:05:14.129Z,4.00
2023-01-11T05:07:41.085Z,4.00
2023-01-11T05:10:08.526Z,4.10
2023-01-11T05:12:35.427Z,4.10
2023-01-11T05:15:02.352Z,4.10
2023-01-11T05:17:29.168Z,4.00
2023-01-11T05:19:55.988Z,3.90
2023-01-11T05:22:22.818Z,4.10
2023-01-11T05:24:49.666Z,4.10
2023-01-11T05:27:16.435Z,4.00
2023-01-11T05:29:44.229Z,4.10
2023-01-11T05:32:12.293Z,4.20
2023-01-11T05:34:39.162Z,4.20
2023-01-11T05:37:05.980Z,4.20
2023-01-11T05:39:32.906Z,4.20
2023-01-11T05:41:59.789Z,4.30
2023-01-11T05:44:45.229Z,4.20
2023-01-11T05:47:12.056Z,4.30
2023-01-11T05:49:39.630Z,4.20
2023-01-11T05:52:06.487Z,4.10
2023-01-11T05:54:33.217Z,4.30
2023-01-11T05:56:59.989Z,4.30
2023-01-11T05:59:26.863Z,4.30
2023-01-11T06:01:53.923Z,4.40
2023-01-11T06:04:20.834Z,4.40
2023-01-11T06:06:47.711Z,4.40
2023-01-11T06:09:14.619Z,4.40
2023-01-11T06:11:41.416Z,4.60
2023-01-11T06:14:08.218Z,4.50
2023-01-11T06:16:35.068Z,4.50
2023-01-11T06:19:01.943Z,4.40
2023-01-11T06:21:28.966Z,4.50
2023-01-11T06:23:55.768Z,4.40
2023-01-11T06:26:23.292Z,4.40
2023-01-11T06:28:51.763Z,4.50
2023-01-11T06:31:19.149Z,4.40
2023-01-11T06:33:46.857Z,4.70
2023-01-11T06:36:15.489Z,4.40
2023-01-11T06:38:43.467Z,4.50
2023-01-11T06:41:11.456Z,4.50
2023-01-11T06:43:41.815Z,4.60
2023-01-11T06:46:13.482Z,4.50
2023-01-11T06:48:40.389Z,4.60
2023-01-11T06:51:07.225Z,4.60
2023-01-11T06:53:34.085Z,4.60
2023-01-11T06:56:01.036Z,4.60
2023-01-11T06:58:28.203Z,4.50
2023-01-11T07:00:57.541Z,4.60
2023-01-11T07:03:26.141Z,4.60
2023-01-11T07:05:56.792Z,4.60
2023-01-11T07:08:25.054Z,4.60
2023-01-11T07:10:52.613Z,4.60
2023-01-11T07:13:19.710Z,4.60
2023-01-11T07:15:50.014Z,4.70
2023-01-11T07:18:18.400Z,4.70
2023-01-11T07:20:45.328Z,4.60
2023-01-11T07:23:12.205Z,4.70
2023-01-11T07:25:39.171Z,4.60
2023-01-11T07:28:07.678Z,4.70
2023-01-11T07:30:51.950Z,4.70
2023-01-11T07:33:23.560Z,4.70
2023-01-11T07:35:50.453Z,4.60
2023-01-11T07:38:17.337Z,4.60
2023-01-11T07:40:44.198Z,4.60
2023-01-11T07:43:15.082Z,4.60
2023-01-11T07:45:46.447Z,4.60
2023-01-11T07:48:15.394Z,4.60
2023-01-11T07:50:44.758Z,4.60
2023-01-11T07:53:13.034Z,4.60
2023-01-11T07:55:40.769Z,4.60
2023-01-11T07:58:11.394Z,4.60
2023-01-11T08:00:40.702Z,4.60
2023-01-11T08:03:07.896Z,4.80
2023-01-11T08:05:34.962Z,4.70
2023-01-11T08:08:02.051Z,4.80
2023-01-11T08:10:29.171Z,4.60
2023-01-11T08:13:14.899Z,4.60
2023-01-11T08:15:45.074Z,4.50
2023-01-11T08:18:13.153Z,4.60
2023-01-11T08:20:40.934Z,4.50
2023-01-11T08:23:10.329Z,4.50
2023-01-11T08:25:38.211Z,4.50
2023-01-11T08:28:07.118Z,4.50
2023-01-11T08:30:35.011Z,4.60
2023-01-11T08:33:03.025Z,4.60
2023-01-11T08:35:31.774Z,4.60
2023-01-11T08:37:58.726Z,4.60
2023-01-11T08:40:25.931Z,4.70
2023-01-11T08:42:56.965Z,4.60
2023-01-11T08:45:24.325Z,4.60
2023-01-11T08:47:52.254Z,4.80
2023-01-11T08:50:21.311Z,4.90
2023-01-11T08:52:50.687Z,4.80
2023-01-11T08:55:17.919Z,4.80
2023-01-11T08:57:46.161Z,4.80
2023-01-11T09:00:13.848Z,4.90
2023-01-11T09:02:40.916Z,4.90
2023-01-11T09:05:08.617Z,4.90
2023-01-11T09:07:35.959Z,4.90
2023-01-11T09:10:03.135Z,4.90
2023-01-11T09:12:32.526Z,4.80
2023-01-11T09:14:59.433Z,4.90
2023-01-11T09:17:26.492Z,4.90
2023-01-11T09:19:53.661Z,5.00
2023-01-11T10:18:34.386Z,5.40
2023-01-11T10:18:50.031Z,5.40
2023-01-11T10:21:25.387Z,5.50
2023-01-11T10:24:01.464Z,5.60
2023-01-11T10:26:36.259Z,5.60
2023-01-11T10:29:15.798Z,5.70
2023-01-11T10:32:09.708Z,5.70
2023-01-11T10:35:12.958Z,5.80
2023-01-11T10:37:50.556Z,5.70
2023-01-11T10:40:57.930Z,5.70
2023-01-11T10:43:27.066Z,5.80
2023-01-11T10:45:58.317Z,5.80
2023-01-11T10:48:35.894Z,5.80
2023-01-11T10:51:29.489Z,5.80
2023-01-11T10:54:12.483Z,5.90
2023-01-11T10:57:03.539Z,5.90
2023-01-11T10:59:48.721Z,6.00
2023-01-11T11:02:49.423Z,6.00
2023-01-11T11:05:39.618Z,6.00
2023-01-11T11:08:19.333Z,6.10
2023-01-11T11:10:53.777Z,6.00
2023-01-11T11:13:43.420Z,6.10
2023-01-11T11:16:22.521Z,6.00
2023-01-11T11:18:58.700Z,6.00
2023-01-11T11:21:29.505Z,6.10
2023-01-11T11:24:39.931Z,6.20
2023-01-11T11:27:19.582Z,6.20
2023-01-11T11:29:52.810Z,6.20
2023-01-11T11:32:31.430Z,6.20
2023-01-11T11:34:59.051Z,6.20
2023-01-11T11:37:34.772Z,6.20
2023-01-11T11:40:02.318Z,6.20
2023-01-11T11:42:29.792Z,6.30
2023-01-11T11:45:08.843Z,6.30
2023-01-11T11:47:36.890Z,6.30
2023-01-11T11:50:42.092Z,6.30
2023-01-11T11:53:06.988Z,6.30
2023-01-11T11:55:35.371Z,6.40
2023-01-11T11:58:08.664Z,6.50
2023-01-11T12:00:44.158Z,6.30
2023-01-11T12:03:29.349Z,6.40
2023-01-11T12:06:01.289Z,6.50
2023-01-11T12:08:31.455Z,6.40
2023-01-11T12:11:02.870Z,6.50
2023-01-11T12:13:34.878Z,6.40
2023-01-11T12:16:22.323Z,6.30
2023-01-11T12:18:49.605Z,6.40
2023-01-11T12:21:23.599Z,6.30
2023-01-11T12:24:12.853Z,6.40
2023-01-11T12:27:08.220Z,6.50
2023-01-11T12:30:23.353Z,6.40
2023-01-11T12:32:50.488Z,6.50
2023-01-11T12:35:40.643Z,6.50
2023-01-11T12:38:52.645Z,6.50
2023-01-11T12:41:42.419Z,6.60
2023-01-11T12:44:21.615Z,6.50
2023-01-11T12:47:10.990Z,6.70
2023-01-11T12:50:06.345Z,6.70
2023-01-11T12:52:51.922Z,6.80
2023-01-11T12:55:25.183Z,6.90
2023-01-11T12:58:08.739Z,6.90
2023-01-11T13:00:54.362Z,6.80
2023-01-11T13:04:01.206Z,6.90
2023-01-11T13:06:49.930Z,6.90
2023-01-11T13:09:38.539Z,6.80
2023-01-11T13:12:32.546Z,6.90
2023-01-11T13:15:24.118Z,6.80
2023-01-11T13:17:54.547Z,7.00
2023-01-11T13:20:53.714Z,7.00
2023-01-11T13:23:42.033Z,6.90
2023-01-11T13:26:46.826Z,6.90
2023-01-11T13:29:25.565Z,6.70
2023-01-11T13:31:54.457Z,7.00
2023-01-11T13:34:29.843Z,6.90
2023-01-11T13:37:07.754Z,7.00
2023-01-11T13:39:47.415Z,7.00
2023-01-11T13:42:31.098Z,6.80
2023-01-11T13:45:36.705Z,6.90
2023-01-11T13:48:18.512Z,6.90
2023-01-11T13:50:54.569Z,6.90
2023-01-11T13:53:43.812Z,6.90
2023-01-11T13:56:22.254Z,7.00
2023-01-11T13:58:55.636Z,6.90
2023-01-11T14:01:41.928Z,6.90
2023-01-11T14:04:23.842Z,6.90
2023-01-11T14:06:58.753Z,7.00
2023-01-11T14:09:41.110Z,6.90
2023-01-11T14:12:33.260Z,7.00
2023-01-11T14:15:18.411Z,7.00
2023-01-11T14:18:13.382Z,6.90
2023-01-11T14:21:20.994Z,6.90
2023-01-11T14:23:51.399Z,6.80
2023-01-11T14:26:33.447Z,6.90
2023-01-11T14:29:39.142Z,7.00
2023-01-11T14:32:14.930Z,6.90
2023-01-11T14:35:05.130Z,6.90
2023-01-11T14:38:00.292Z,7.00
2023-01-11T14:40:39.187Z,7.00
2023-01-11T14:43:24.977Z,6.90
2023-01-11T14:46:13.611Z,6.90
2023-01-11T14:49:26.412Z,7.00
2023-01-11T14:52:39.267Z,6.90
2023-01-11T14:55:16.311Z,6.90
2023-01-11T14:57:59.567Z,6.90
2023-01-11T15:00:26.307Z,6.90
2023-01-11T15:03:20.873Z,6.90
2023-01-11T15:06:13.399Z,6.90
2023-01-11T15:08:48.912Z,7.00
2023-01-11T15:11:29.729Z,7.00
2023-01-11T15:14:20.649Z,7.00
2023-01-11T15:17:11.019Z,7.00
2023-01-11T15:19:41.685Z,6.90
2023-01-11T15:22:25.158Z,6.90
2023-01-11T15:25:05.251Z,6.80
2023-01-11T15:27:38.065Z,6.90
2023-01-11T15:30:07.366Z,6.90
2023-01-11T15:32:35.614Z,6.80
2023-01-11T15:35:24.057Z,6.90
2023-01-11T15:38:32.009Z,6.80
2023-01-11T15:41:22.141Z,6.80
2023-01-11T15:44:30.044Z,6.80
2023-01-11T15:47:49.779Z,6.80
2023-01-11T15:50:50.875Z,6.70
2023-01-11T15:53:46.279Z,6.70
2023-01-11T15:56:41.994Z,6.70
2023-01-11T15:59:46.793Z,6.70
2023-01-11T16:02:13.527Z,6.70
2023-01-11T16:05:11.836Z,6.70
2023-01-11T16:07:42.869Z,6.70
2023-01-11T16:10:34.309Z,6.70
2023-01-11T16:13:24.057Z,6.70
2023-01-11T16:16:05.984Z,6.70
2023-01-11T16:18:43.062Z,6.60
2023-01-11T16:21:32.568Z,6.60
2023-01-11T16:24:01.570Z,6.70
2023-01-11T16:26:28.493Z,6.70
2023-01-11T16:28:58.060Z,6.70
2023-01-11T16:31:26.521Z,6.60
2023-01-11T16:33:54.433Z,6.70
2023-01-11T16:36:23.193Z,6.60
2023-01-11T16:39:02.616Z,6.70
2023-01-11T16:41:58.039Z,6.60
2023-01-11T16:44:37.172Z,6.70
2023-01-11T16:47:03.927Z,6.70
2023-01-11T16:49:30.994Z,6.70
2023-01-11T16:52:00.325Z,6.70
2023-01-11T16:54:31.261Z,6.70
2023-01-11T16:57:00.515Z,6.70
2023-01-11T16:59:31.009Z,6.70
2023-01-11T17:02:05.573Z,6.70
2023-01-11T17:04:38.261Z,6.70
2023-01-11T17:07:24.078Z,6.70
2023-01-11T17:09:51.099Z,6.80
2023-01-11T17:12:22.182Z,6.70
2023-01-11T17:14:58.032Z,6.70
2023-01-11T17:17:27.269Z,6.60
2023-01-11T17:19:56.266Z,6.60
2023-01-11T17:22:33.610Z,6.70
2023-01-11T17:25:03.827Z,6.60
2023-01-11T17:27:38.152Z,6.60
2023-01-11T17:30:13.100Z,6.60
2023-01-11T17:32:43.984Z,6.60
2023-01-11T17:35:20.375Z,6.60
2023-01-11T17:37:50.274Z,6.50
2023-01-11T17:40:29.350Z,6.50
2023-01-11T17:43:20.690Z,6.60
2023-01-11T17:46:14.129Z,6.50
2023-01-11T17:48:52.992Z,6.50
2023-01-11T17:51:29.144Z,6.50
2023-01-11T17:53:56.174Z,6.60
2023-01-11T17:56:41.940Z,6.60
2023-01-11T17:59:11.846Z,6.50
2023-01-11T18:01:39.025Z,6.50
2023-01-11T18:04:05.956Z,6.60
2023-01-11T18:06:36.354Z,6.40
2023-01-11T18:09:06.217Z,6.30
2023-01-11T18:11:41.745Z,6.30
2023-01-11T18:14:18.591Z,6.30
2023-01-11T18:17:01.064Z,6.30
2023-01-11T18:19:46.682Z,6.40
2023-01-11T18:22:40.543Z,6.20
2023-01-11T18:25:25.594Z,6.20
2023-01-11T18:28:28.778Z,6.20
2023-01-11T18:31:00.117Z,6.20
2023-01-11T18:33:31.592Z,6.30
2023-01-11T18:36:01.111Z,6.30
2023-01-11T18:38:31.128Z,6.40
2023-01-11T18:41:20.306Z,6.30
2023-01-11T18:43:47.274Z,6.30
2023-01-11T18:46:14.147Z,6.20
2023-01-11T18:48:41.148Z,6.20
2023-01-11T18:51:16.857Z,6.20
2023-01-11T18:53:43.981Z,6.20
2023-01-11T18:56:10.927Z,6.20
2023-01-11T18:58:37.766Z,6.20
2023-01-11T19:01:07.929Z,6.20
2023-01-11T19:03:35.131Z,6.10
2023-01-11T19:06:02.059Z,6.00
2023-01-11T19:08:30.676Z,6.00
2023-01-11T19:10:57.730Z,6.00
2023-01-11T19:13:24.560Z,6.00
2023-01-11T19:15:51.510Z,6.00
2023-01-11T19:18:18.445Z,6.00
2023-01-11T19:20:45.297Z,6.10
2023-01-11T19:23:12.204Z,6.00
2023-01-11T19:25:39.120Z,6.00
2023-01-11T19:28:06.423Z,6.00
2023-01-11T19:30:33.283Z,5.90
2023-01-11T19:33:00.168Z,5.90
2023-01-11T19:35:27.044Z,5.90
2023-01-11T19:37:54.023Z,5.90
2023-01-11T19:40:21.410Z,6.00
2023-01-11T19:42:48.856Z,5.90
2023-01-11T19:45:15.701Z,5.90
2023-01-11T19:47:42.625Z,5.90
2023-01-11T19:50:10.059Z,5.90
2023-01-11T19:52:37.080Z,5.80
2023-01-11T19:55:04.189Z,5.90
2023-01-11T19:57:31.060Z,5.80
2023-01-11T19:59:57.903Z,5.80
2023-01-11T20:02:25.079Z,5.70
2023-01-11T20:04:52.085Z,5.70
2023-01-11T20:07:19.713Z,5.80
2023-01-11T20:09:46.639Z,5.70
2023-01-11T20:12:15.999Z,5.70
2023-01-11T20:14:44.473Z,5.70
2023-01-11T20:17:11.920Z,5.70
2023-01-11T20:19:39.035Z,5.70
2023-01-11T20:22:06.006Z,5.70
2023-01-11T20:24:33.099Z,5.60
2023-01-11T20:27:01.489Z,5.50
2023-01-11T20:29:28.614Z,5.60
2023-01-11T20:31:56.671Z,5.50
2023-01-11T20:34:23.698Z,5.50
2023-01-11T20:36:51.554Z,5.50
2023-01-11T20:39:19.430Z,5.60
2023-01-11T20:41:49.695Z,5.60
2023-01-11T20:44:25.797Z,5.50
2023-01-11T20:46:54.300Z,5.60
2023-01-11T20:49:27.481Z,5.70
2023-01-11T20:51:54.494Z,5.60
2023-01-11T20:54:21.350Z,5.60
2023-01-11T20:56:48.357Z,5.70
2023-01-11T20:59:17.509Z,5.70
2023-01-11T21:01:44.619Z,5.60
2023-01-11T21:04:12.680Z,5.70
2023-01-11T21:06:45.030Z,5.70
2023-01-11T21:09:20.764Z,5.60
2023-01-11T21:11:53.932Z,5.50
2023-01-11T21:14:21.978Z,5.50
2023-01-11T21:16:49.303Z,5.50
2023-01-11T21:19:16.523Z,5.40
2023-01-11T21:21:43.811Z,5.30
2023-01-11T21:24:13.393Z,5.60
2023-01-11T21:26:42.024Z,5.40
2023-01-11T21:29:10.406Z,5.50
2023-01-11T21:31:37.928Z,5.50
2023-01-11T21:34:05.233Z,5.40
2023-01-11T21:36:32.451Z,5.40
2023-01-11T21:39:02.696Z,5.40
2023-01-11T21:41:50.120Z,5.40
2023-01-11T21:44:18.775Z,5.50
2023-01-11T21:46:45.909Z,5.40
2023-01-11T21:49:13.761Z,5.30
2023-01-11T21:51:41.798Z,5.30
2023-01-11T21:54:11.158Z,5.30
2023-01-11T21:56:38.299Z,5.30
2023-01-11T21:59:05.218Z,5.30
2023-01-11T22:01:32.048Z,5.40
2023-01-11T22:03:59.123Z,5.30
2023-01-11T22:06:26.052Z,5.40
2023-01-11T22:08:52.918Z,5.30
2023-01-11T22:11:19.854Z,5.30
2023-01-11T22:13:46.782Z,5.40
2023-01-11T22:16:16.225Z,5.40
2023-01-11T22:18:43.943Z,5.30
2023-01-11T22:21:17.960Z,5.50
2023-01-11T22:23:46.932Z,5.40
2023-01-11T22:26:18.089Z,5.40
2023-01-11T22:29:05.059Z,5.50
2023-01-11T22:31:33.656Z,5.40
2023-01-11T22:34:01.374Z,5.30
2023-01-11T22:36:29.132Z,5.40
2023-01-11T22:38:57.451Z,5.30
2023-01-11T22:41:25.644Z,5.30
2023-01-11T22:43:53.507Z,5.30
2023-01-11T22:46:22.791Z,5.30
2023-01-11T22:48:50.574Z,5.20
2023-01-11T22:51:23.173Z,5.20
2023-01-11T22:53:52.177Z,5.20
2023-01-11T22:56:22.250Z,5.20
2023-01-11T22:58:52.392Z,5.30
2023-01-11T23:01:22.534Z,5.10
2023-01-11T23:03:50.126Z,5.10
2023-01-11T23:06:19.695Z,5.10
2023-01-11T23:08:46.689Z,5.20
2023-01-11T23:11:36.308Z,5.10
2023-01-11T23:14:05.951Z,5.10
2023-01-11T23:16:33.389Z,5.10
2023-01-11T23:19:00.440Z,5.00
2023-01-11T23:21:28.276Z,5.00
2023-01-11T23:23:55.158Z,5.00
2023-01-11T23:26:22.588Z,5.00
2023-01-11T23:28:50.362Z,4.90
2023-01-11T23:31:20.354Z,5.00
2023-01-11T23:33:50.419Z,5.00
2023-01-11T23:36:19.121Z,5.00
2023-01-11T23:38:46.691Z,4.90
2023-01-11T23:41:37.804Z,5.00
2023-01-11T23:44:09.539Z,5.10
2023-01-11T23:46:56.386Z,5.00
2023-01-11T23:49:24.832Z,5.00
2023-01-11T23:51:52.110Z,5.00
2023-01-11T23:54:19.447Z,4.90
2023-01-11T23:56:46.609Z,4.90
2023-01-11T23:59:13.505Z,4.90
